PWSweather.com
Personal Weather Stations
Station Observations
KWIPARKF
Flambeau River State Forest, Park Falls, WI 54552

Flambeau River State ForestPark Falls, WI 54552

Lat: 45.81943, Lon: -90.61676

Elevation: 1476

Station Type: Davis Vantage Pro2 Plus

www.flambeauforestweather.com

High Low Average
Temperature 39.9°F4.4°F 16.9°F-8.4°F 29.5°F-1.4°F
Dew Point 33.7°F0.9°F 14.5°F-9.7°F 26.8°F-2.9°F
Winds Calm SWCalm SW Calm Calm Calm Calm
Wind Gusts -- -- --
Humidity 97% 78% 90%
Pressure 30.02 in1016.60 in 29.71 in1006.10 in -
Precipitation 0.10 in2.50 in - -
Hour Temp Dew Point Humidity Winds Wind Gusts Pressure Precip Precip Rate Daily Precip Total
12:00 AM 29.7°F-1.3°C 26.6°F-3.0°C 88% Calm Calm -- 29.71 in1006.1 mb - 0.00 in0.0 mm 0.00 in0.0 mm
12:10 AM 29.7°F-1.3°C 26.6°F-3.0°C 88% Calm Calm -- 29.71 in1006.1 mb - 0.00 in0.0 mm 0.00 in0.0 mm
12:20 AM 29.5°F-1.4°C 26.4°F-3.1°C 88% Calm Calm -- 29.71 in1006.1 mb - 0.00 in0.0 mm 0.00 in0.0 mm
12:30 AM 29.2°F-1.6°C 25.8°F-3.4°C 87% Calm Calm -- 29.72 in1006.4 mb - 0.00 in0.0 mm 0.00 in0.0 mm
12:40 AM 28.8°F-1.8°C 25.4°F-3.7°C 87% Calm Calm -- 29.72 in1006.4 mb - 0.00 in0.0 mm 0.00 in0.0 mm
12:50 AM 28.3°F-2.1°C 24.6°F-4.1°C 86% Calm Calm -- 29.73 in1006.8 mb - 0.00 in0.0 mm 0.00 in0.0 mm
01:00 AM 27.6°F-2.4°C 24.2°F-4.3°C 87% Calm Calm -- 29.74 in1007.1 mb - 0.00 in0.0 mm 0.00 in0.0 mm
01:10 AM 27.0°F-2.8°C 23.6°F-4.7°C 87% Calm Calm -- 29.74 in1007.1 mb - 0.00 in0.0 mm 0.00 in0.0 mm
01:20 AM 26.8°F-2.9°C 24.3°F-4.3°C 90% Calm Calm -- 29.75 in1007.5 mb - 0.00 in0.0 mm 0.00 in0.0 mm
01:30 AM 26.8°F-2.9°C 24.5°F-4.2°C 91% Calm Calm -- 29.75 in1007.5 mb - 0.00 in0.0 mm 0.00 in0.0 mm
01:40 AM 26.8°F-2.9°C 24.8°F-4.0°C 92% Calm Calm -- 29.76 in1007.8 mb - 0.00 in0.0 mm 0.00 in0.0 mm
01:50 AM 26.7°F-2.9°C 24.7°F-4.1°C 92% Calm Calm -- 29.76 in1007.8 mb - 0.00 in0.0 mm 0.00 in0.0 mm
02:00 AM 26.9°F-2.8°C 25.1°F-3.8°C 93% Calm Calm -- 29.77 in1008.1 mb - 0.00 in0.0 mm 0.00 in0.0 mm
02:10 AM 27.1°F-2.7°C 25.3°F-3.7°C 93% Calm Calm -- 29.77 in1008.1 mb - 0.00 in0.0 mm 0.00 in0.0 mm
02:20 AM 27.3°F-2.6°C 25.5°F-3.6°C 93% Calm Calm -- 29.78 in1008.5 mb - 0.00 in0.0 mm 0.00 in0.0 mm
02:30 AM 27.6°F-2.4°C 26.1°F-3.3°C 94% Calm Calm -- 29.78 in1008.5 mb - 0.00 in0.0 mm 0.00 in0.0 mm
02:40 AM 27.5°F-2.5°C 26.0°F-3.3°C 94% Calm Calm -- 29.79 in1008.8 mb - 0.00 in0.0 mm 0.00 in0.0 mm
02:50 AM 27.2°F-2.7°C 25.4°F-3.7°C 93% Calm Calm -- 29.79 in1008.8 mb - 0.00 in0.0 mm 0.00 in0.0 mm
03:00 AM 26.8°F-2.9°C 24.8°F-4.0°C 92% Calm Calm -- 29.79 in1008.8 mb - 0.00 in0.0 mm 0.00 in0.0 mm
03:10 AM 26.4°F-3.1°C 24.4°F-4.2°C 92% Calm Calm -- 29.79 in1008.8 mb - 0.00 in0.0 mm 0.00 in0.0 mm
03:20 AM 26.0°F-3.3°C 23.7°F-4.6°C 91% Calm Calm -- 29.79 in1008.8 mb - 0.00 in0.0 mm 0.00 in0.0 mm
03:30 AM 25.6°F-3.6°C 23.6°F-4.7°C 92% Calm Calm -- 29.80 in1009.1 mb - 0.00 in0.0 mm 0.00 in0.0 mm
03:40 AM 25.5°F-3.6°C 23.8°F-4.6°C 93% Calm Calm -- 29.80 in1009.1 mb - 0.00 in0.0 mm 0.00 in0.0 mm
03:50 AM 25.5°F-3.6°C 23.8°F-4.6°C 93% Calm Calm -- 29.80 in1009.1 mb - 0.00 in0.0 mm 0.00 in0.0 mm
04:00 AM 25.3°F-3.7°C 23.6°F-4.7°C 93% Calm Calm -- 29.80 in1009.1 mb - 0.00 in0.0 mm 0.00 in0.0 mm
04:10 AM 24.9°F-3.9°C 23.2°F-4.9°C 93% Calm Calm -- 29.80 in1009.1 mb - 0.00 in0.0 mm 0.00 in0.0 mm
04:20 AM 24.6°F-4.1°C 22.9°F-5.1°C 93% Calm Calm -- 29.80 in1009.1 mb - 0.00 in0.0 mm 0.00 in0.0 mm
04:30 AM 24.3°F-4.3°C 22.6°F-5.2°C 93% Calm Calm -- 29.81 in1009.5 mb - 0.00 in0.0 mm 0.00 in0.0 mm
04:40 AM 24.0°F-4.4°C 22.3°F-5.4°C 93% Calm Calm -- 29.81 in1009.5 mb - 0.00 in0.0 mm 0.00 in0.0 mm
04:50 AM 23.9°F-4.5°C 22.2°F-5.4°C 93% Calm Calm -- 29.81 in1009.5 mb - 0.00 in0.0 mm 0.00 in0.0 mm
05:00 AM 23.7°F-4.6°C 22.0°F-5.6°C 93% Calm Calm -- 29.82 in1009.8 mb - 0.00 in0.0 mm 0.00 in0.0 mm
05:10 AM 23.6°F-4.7°C 21.8°F-5.7°C 93% Calm Calm -- 29.82 in1009.8 mb - 0.00 in0.0 mm 0.00 in0.0 mm
05:20 AM 23.4°F-4.8°C 21.9°F-5.6°C 94% Calm Calm -- 29.82 in1009.8 mb - 0.00 in0.0 mm 0.00 in0.0 mm
05:30 AM 22.9°F-5.1°C 21.2°F-6.0°C 93% Calm Calm -- 29.82 in1009.8 mb - 0.00 in0.0 mm 0.00 in0.0 mm
05:40 AM 22.4°F-5.3°C 20.4°F-6.4°C 92% Calm Calm -- 29.83 in1010.2 mb - 0.00 in0.0 mm 0.00 in0.0 mm
05:50 AM 21.5°F-5.8°C 18.8°F-7.3°C 89% Calm Calm -- 29.83 in1010.2 mb - 0.00 in0.0 mm 0.00 in0.0 mm
06:00 AM 20.8°F-6.2°C 17.8°F-7.9°C 88% Calm Calm -- 29.84 in1010.5 mb - 0.00 in0.0 mm 0.00 in0.0 mm
06:10 AM 20.0°F-6.7°C 17.1°F-8.3°C 88% Calm Calm -- 29.84 in1010.5 mb - 0.00 in0.0 mm 0.00 in0.0 mm
06:20 AM 19.4°F-7.0°C 16.7°F-8.5°C 89% Calm Calm -- 29.84 in1010.5 mb - 0.00 in0.0 mm 0.00 in0.0 mm
06:30 AM 18.8°F-7.3°C 15.8°F-9.0°C 88% Calm Calm -- 29.85 in1010.8 mb - 0.00 in0.0 mm 0.00 in0.0 mm
06:40 AM 18.4°F-7.6°C 16.0°F-8.9°C 90% Calm Calm -- 29.85 in1010.8 mb - 0.00 in0.0 mm 0.00 in0.0 mm
06:50 AM 18.0°F-7.8°C 15.3°F-9.3°C 89% Calm Calm -- 29.86 in1011.2 mb - 0.00 in0.0 mm 0.00 in0.0 mm
07:00 AM 17.5°F-8.1°C 14.8°F-9.6°C 89% Calm Calm -- 29.86 in1011.2 mb - 0.00 in0.0 mm 0.00 in0.0 mm
07:10 AM 17.2°F-8.2°C 14.5°F-9.7°C 89% Calm Calm -- 29.86 in1011.2 mb - 0.00 in0.0 mm 0.00 in0.0 mm
07:20 AM 16.9°F-8.4°C 14.5°F-9.7°C 90% Calm Calm -- 29.88 in1011.9 mb - 0.00 in0.0 mm 0.00 in0.0 mm
07:30 AM 17.2°F-8.2°C 15.3°F-9.3°C 92% Calm Calm -- 29.88 in1011.9 mb - 0.00 in0.0 mm 0.00 in0.0 mm
07:40 AM 17.5°F-8.1°C 15.8°F-9.0°C 93% Calm Calm -- 29.89 in1012.2 mb - 0.00 in0.0 mm 0.00 in0.0 mm
07:50 AM 17.8°F-7.9°C 16.1°F-8.8°C 93% Calm Calm -- 29.88 in1011.9 mb - 0.00 in0.0 mm 0.00 in0.0 mm
08:00 AM 17.9°F-7.8°C 16.2°F-8.8°C 93% Calm Calm -- 29.89 in1012.2 mb - 0.00 in0.0 mm 0.00 in0.0 mm
08:10 AM 17.9°F-7.8°C 16.2°F-8.8°C 93% Calm Calm -- 29.89 in1012.2 mb - 0.00 in0.0 mm 0.00 in0.0 mm
08:20 AM 18.1°F-7.7°C 16.5°F-8.6°C 93% Calm Calm -- 29.89 in1012.2 mb - 0.00 in0.0 mm 0.00 in0.0 mm
08:30 AM 18.5°F-7.5°C 17.1°F-8.3°C 94% Calm Calm -- 29.90 in1012.5 mb - 0.00 in0.0 mm 0.00 in0.0 mm
08:40 AM 19.0°F-7.2°C 17.6°F-8.0°C 94% Calm Calm -- 29.90 in1012.5 mb - 0.00 in0.0 mm 0.00 in0.0 mm
08:50 AM 19.5°F-6.9°C 18.0°F-7.8°C 94% Calm Calm -- 29.91 in1012.9 mb - 0.00 in0.0 mm 0.00 in0.0 mm
09:00 AM 20.2°F-6.6°C 19.0°F-7.2°C 95% Calm Calm -- 29.91 in1012.9 mb - 0.00 in0.0 mm 0.00 in0.0 mm
09:10 AM 21.3°F-5.9°C 20.4°F-6.4°C 96% Calm Calm -- 29.92 in1013.2 mb - 0.00 in0.0 mm 0.00 in0.0 mm
09:20 AM 22.5°F-5.3°C 21.5°F-5.8°C 96% Calm Calm -- 29.92 in1013.2 mb - 0.00 in0.0 mm 0.00 in0.0 mm
09:30 AM 24.0°F-4.4°C 23.0°F-5.0°C 96% Calm Calm -- 29.93 in1013.5 mb - 0.00 in0.0 mm 0.00 in0.0 mm
09:40 AM 25.2°F-3.8°C 24.2°F-4.3°C 96% Calm Calm -- 29.93 in1013.5 mb - 0.00 in0.0 mm 0.00 in0.0 mm
09:50 AM 26.2°F-3.2°C 25.2°F-3.8°C 96% Calm Calm -- 29.93 in1013.5 mb - 0.00 in0.0 mm 0.00 in0.0 mm
10:00 AM 27.0°F-2.8°C 26.0°F-3.3°C 96% Calm Calm -- 29.93 in1013.5 mb - 0.00 in0.0 mm 0.00 in0.0 mm
10:10 AM 27.5°F-2.5°C 26.8°F-2.9°C 97% Calm Calm -- 29.93 in1013.5 mb - 0.00 in0.0 mm 0.00 in0.0 mm
10:20 AM 28.2°F-2.1°C 27.4°F-2.6°C 97% Calm Calm -- 29.94 in1013.9 mb - 0.00 in0.0 mm 0.00 in0.0 mm
10:30 AM 28.7°F-1.8°C 28.0°F-2.2°C 97% Calm Calm -- 29.94 in1013.9 mb - 0.00 in0.0 mm 0.00 in0.0 mm
10:40 AM 29.2°F-1.6°C 28.5°F-1.9°C 97% Calm Calm -- 29.95 in1014.2 mb - 0.00 in0.0 mm 0.00 in0.0 mm
10:50 AM 29.6°F-1.3°C 28.8°F-1.8°C 97% Calm Calm -- 29.95 in1014.2 mb - 0.00 in0.0 mm 0.00 in0.0 mm
11:00 AM 29.7°F-1.3°C 29.0°F-1.7°C 97% Calm Calm -- 29.96 in1014.6 mb - 0.00 in0.0 mm 0.00 in0.0 mm
11:10 AM 29.9°F-1.2°C 29.2°F-1.6°C 97% Calm Calm -- 29.94 in1013.9 mb - 0.00 in0.0 mm 0.00 in0.0 mm
11:20 AM 30.3°F-0.9°C 29.6°F-1.3°C 97% Calm Calm -- 29.94 in1013.9 mb - 0.00 in0.0 mm 0.00 in0.0 mm
11:30 AM 30.8°F-0.7°C 30.0°F-1.1°C 97% Calm Calm -- 29.93 in1013.5 mb - 0.00 in0.0 mm 0.00 in0.0 mm
11:40 AM 31.3°F-0.4°C 30.6°F-0.8°C 97% Calm Calm -- 29.93 in1013.5 mb - 0.00 in0.0 mm 0.00 in0.0 mm
11:50 AM 31.8°F-0.1°C 30.8°F-0.7°C 96% Calm Calm -- 29.93 in1013.5 mb - 0.00 in0.0 mm 0.00 in0.0 mm
12:00 PM 32.4°F0.2°C 31.4°F-0.3°C 96% Calm Calm -- 29.94 in1013.9 mb - 0.00 in0.0 mm 0.00 in0.0 mm
12:10 PM 33.5°F0.8°C 31.1°F-0.5°C 91% Calm Calm -- 29.94 in1013.9 mb - 0.00 in0.0 mm 0.00 in0.0 mm
12:20 PM 34.8°F1.6°C 31.6°F-0.2°C 88% Calm Calm -- 29.94 in1013.9 mb - 0.00 in0.0 mm 0.00 in0.0 mm
12:30 PM 35.7°F2.1°C 32.0°F0.0°C 86% Calm Calm -- 29.95 in1014.2 mb - 0.00 in0.0 mm 0.00 in0.0 mm
12:40 PM 35.8°F2.1°C 32.0°F0.0°C 86% Calm Calm -- 29.94 in1013.9 mb - 0.00 in0.0 mm 0.00 in0.0 mm
12:50 PM 36.6°F2.6°C 32.5°F0.3°C 85% Calm Calm -- 29.94 in1013.9 mb - 0.00 in0.0 mm 0.00 in0.0 mm
01:00 PM 36.8°F2.7°C 32.4°F0.2°C 84% Calm Calm -- 29.93 in1013.5 mb - 0.01 in0.3 mm 0.01 in0.3 mm
01:10 PM 36.8°F2.7°C 32.4°F0.2°C 84% Calm Calm -- 29.93 in1013.5 mb - 0.00 in0.0 mm 0.01 in0.3 mm
01:20 PM 37.2°F2.9°C 32.8°F0.4°C 84% Calm Calm -- 29.94 in1013.9 mb - 0.00 in0.0 mm 0.01 in0.3 mm
01:30 PM 37.5°F3.1°C 32.8°F0.4°C 83% Calm Calm -- 29.93 in1013.5 mb - 0.00 in0.0 mm 0.01 in0.3 mm
01:40 PM 37.9°F3.3°C 32.9°F0.5°C 82% Calm Calm -- 29.93 in1013.5 mb - 0.01 in0.3 mm 0.02 in0.5 mm
01:50 PM 38.0°F3.3°C 33.0°F0.6°C 82% Calm Calm -- 29.93 in1013.5 mb - 0.00 in0.0 mm 0.02 in0.5 mm
02:00 PM 38.4°F3.6°C 33.1°F0.6°C 81% Calm Calm -- 29.94 in1013.9 mb - 0.01 in0.3 mm 0.03 in0.8 mm
02:10 PM 38.3°F3.5°C 33.0°F0.6°C 81% Calm Calm -- 29.93 in1013.5 mb - 0.00 in0.0 mm 0.03 in0.8 mm
02:20 PM 38.9°F3.8°C 33.3°F0.7°C 80% Calm Calm -- 29.93 in1013.5 mb - 0.00 in0.0 mm 0.03 in0.8 mm
02:30 PM 39.0°F3.9°C 33.0°F0.6°C 79% Calm Calm -- 29.93 in1013.5 mb - 0.01 in0.3 mm 0.04 in1.0 mm
02:40 PM 39.4°F4.1°C 33.1°F0.6°C 78% Calm Calm -- 29.93 in1013.5 mb - 0.01 in0.3 mm 0.05 in1.3 mm
02:50 PM 39.4°F4.1°C 33.1°F0.6°C 78% Calm Calm -- 29.93 in1013.5 mb - 0.00 in0.0 mm 0.05 in1.3 mm
03:00 PM 39.9°F4.4°C 33.6°F0.9°C 78% Calm Calm -- 29.93 in1013.5 mb - 0.00 in0.0 mm 0.05 in1.3 mm
03:10 PM 39.8°F4.3°C 33.5°F0.8°C 78% Calm Calm -- 29.93 in1013.5 mb - 0.01 in0.3 mm 0.06 in1.5 mm
03:20 PM 39.9°F4.4°C 33.5°F0.8°C 78% Calm Calm -- 29.94 in1013.9 mb - 0.01 in0.3 mm 0.07 in1.8 mm
03:30 PM 39.9°F4.4°C 33.6°F0.9°C 78% Calm Calm -- 29.93 in1013.5 mb - 0.01 in0.3 mm 0.07 in1.8 mm
03:40 PM 39.6°F4.2°C 33.6°F0.9°C 79% Calm Calm -- 29.94 in1013.9 mb - 0.00 in0.0 mm 0.07 in1.8 mm
03:50 PM 39.7°F4.3°C 33.7°F0.9°C 79% Calm Calm -- 29.94 in1013.9 mb - 0.00 in0.0 mm 0.07 in1.8 mm
04:00 PM 39.7°F4.3°C 33.7°F0.9°C 79% Calm Calm -- 29.94 in1013.9 mb - 0.01 in0.3 mm 0.08 in2.0 mm
04:10 PM 39.6°F4.2°C 33.6°F0.9°C 79% Calm Calm -- 29.94 in1013.9 mb - 0.00 in0.0 mm 0.08 in2.0 mm
04:20 PM 39.4°F4.1°C 33.5°F0.8°C 79% Calm Calm -- 29.95 in1014.2 mb - 0.00 in0.0 mm 0.08 in2.0 mm
04:30 PM 39.2°F4.0°C 33.5°F0.8°C 80% Calm Calm -- 29.95 in1014.2 mb - 0.01 in0.3 mm 0.09 in2.3 mm
04:40 PM 38.9°F3.8°C 33.2°F0.7°C 80% Calm Calm -- 29.95 in1014.2 mb - 0.00 in0.0 mm 0.09 in2.3 mm
04:50 PM 38.6°F3.7°C 33.3°F0.7°C 81% Calm Calm -- 29.95 in1014.2 mb - 0.00 in0.0 mm 0.09 in2.3 mm
05:00 PM 38.2°F3.4°C 32.9°F0.5°C 81% Calm Calm -- 29.96 in1014.6 mb - 0.00 in0.0 mm 0.09 in2.3 mm
05:10 PM 37.8°F3.2°C 32.8°F0.4°C 82% Calm Calm -- 29.97 in1014.9 mb - 0.00 in0.0 mm 0.09 in2.3 mm
05:20 PM 37.3°F2.9°C 32.3°F0.2°C 82% Calm Calm -- 29.97 in1014.9 mb - 0.00 in0.0 mm 0.09 in2.3 mm
05:30 PM 36.8°F2.7°C 32.1°F0.1°C 83% Calm Calm -- 29.98 in1015.2 mb - 0.00 in0.0 mm 0.09 in2.3 mm
05:40 PM 36.4°F2.4°C 32.0°F0.0°C 84% Calm Calm -- 29.98 in1015.2 mb - 0.00 in0.0 mm 0.09 in2.3 mm
05:50 PM 36.1°F2.3°C 31.7°F-0.2°C 84% Calm Calm -- 29.98 in1015.2 mb - 0.00 in0.0 mm 0.09 in2.3 mm
06:00 PM 35.6°F2.0°C 31.6°F-0.2°C 85% Calm Calm -- 29.97 in1014.9 mb - 0.00 in0.0 mm 0.09 in2.3 mm
06:10 PM 35.2°F1.8°C 31.4°F-0.3°C 86% Calm Calm -- 29.98 in1015.2 mb - 0.00 in0.0 mm 0.09 in2.3 mm
06:20 PM 34.8°F1.6°C 31.3°F-0.4°C 87% Calm Calm -- 29.98 in1015.2 mb - 0.00 in0.0 mm 0.09 in2.3 mm
06:30 PM 34.4°F1.3°C 30.9°F-0.6°C 87% Calm Calm -- 29.98 in1015.2 mb - 0.00 in0.0 mm 0.09 in2.3 mm
06:40 PM 33.9°F1.1°C 30.7°F-0.7°C 88% Calm Calm -- 29.98 in1015.2 mb - 0.00 in0.0 mm 0.09 in2.3 mm
06:50 PM 33.6°F0.9°C 30.4°F-0.9°C 88% Calm Calm -- 29.98 in1015.2 mb - 0.00 in0.0 mm 0.09 in2.3 mm
07:00 PM 33.3°F0.7°C 30.4°F-0.9°C 89% Calm Calm -- 29.98 in1015.2 mb - 0.00 in0.0 mm 0.09 in2.3 mm
07:10 PM 33.0°F0.6°C 30.4°F-0.9°C 90% Calm Calm -- 29.98 in1015.2 mb - 0.00 in0.0 mm 0.09 in2.3 mm
07:20 PM 32.7°F0.4°C 30.1°F-1.1°C 90% Calm Calm -- 29.98 in1015.2 mb - 0.00 in0.0 mm 0.09 in2.3 mm
07:30 PM 32.5°F0.3°C 30.2°F-1.0°C 91% Calm Calm -- 29.98 in1015.2 mb - 0.00 in0.0 mm 0.09 in2.3 mm
07:40 PM 32.3°F0.2°C 30.0°F-1.1°C 91% Calm Calm -- 29.98 in1015.2 mb - 0.00 in0.0 mm 0.09 in2.3 mm
07:50 PM 32.0°F0.0°C 29.7°F-1.3°C 91% Calm Calm -- 29.98 in1015.2 mb - 0.00 in0.0 mm 0.09 in2.3 mm
08:00 PM 31.8°F-0.1°C 29.5°F-1.4°C 91% Calm Calm -- 29.98 in1015.2 mb - 0.00 in0.0 mm 0.09 in2.3 mm
08:10 PM 31.6°F-0.2°C 29.5°F-1.4°C 92% Calm Calm -- 29.98 in1015.2 mb - 0.00 in0.0 mm 0.09 in2.3 mm
08:20 PM 31.3°F-0.4°C 29.3°F-1.5°C 92% Calm Calm -- 29.98 in1015.2 mb - 0.00 in0.0 mm 0.09 in2.3 mm
08:30 PM 31.0°F-0.6°C 29.0°F-1.7°C 92% Calm Calm -- 29.99 in1015.6 mb - 0.00 in0.0 mm 0.09 in2.3 mm
08:40 PM 30.7°F-0.7°C 28.7°F-1.8°C 92% Calm Calm -- 29.98 in1015.2 mb - 0.00 in0.0 mm 0.09 in2.3 mm
08:50 PM 30.5°F-0.8°C 28.5°F-1.9°C 92% Calm Calm -- 29.98 in1015.2 mb - 0.00 in0.0 mm 0.09 in2.3 mm
09:00 PM 30.2°F-1.0°C 28.1°F-2.2°C 92% Calm Calm -- 29.98 in1015.2 mb - 0.00 in0.0 mm 0.09 in2.3 mm
09:10 PM 29.9°F-1.2°C 27.9°F-2.3°C 92% Calm Calm -- 29.98 in1015.2 mb - 0.00 in0.0 mm 0.09 in2.3 mm
09:20 PM 29.7°F-1.3°C 27.9°F-2.3°C 93% Calm Calm -- 29.98 in1015.2 mb - 0.00 in0.0 mm 0.09 in2.3 mm
09:30 PM 29.5°F-1.4°C 27.7°F-2.4°C 93% Calm Calm -- 29.98 in1015.2 mb - 0.00 in0.0 mm 0.09 in2.3 mm
09:40 PM 29.4°F-1.4°C 27.6°F-2.4°C 93% Calm Calm -- 29.98 in1015.2 mb - 0.00 in0.0 mm 0.09 in2.3 mm
09:50 PM 29.6°F-1.3°C 28.1°F-2.2°C 94% Calm Calm -- 29.98 in1015.2 mb - 0.00 in0.0 mm 0.09 in2.3 mm
10:00 PM 29.7°F-1.3°C 28.2°F-2.1°C 94% Calm Calm -- 29.98 in1015.2 mb - 0.00 in0.0 mm 0.09 in2.3 mm
10:10 PM 29.7°F-1.3°C 28.4°F-2.0°C 95% Calm Calm -- 29.99 in1015.6 mb - 0.00 in0.0 mm 0.09 in2.3 mm
10:20 PM 29.6°F-1.3°C 28.1°F-2.2°C 94% Calm Calm -- 29.98 in1015.2 mb - 0.00 in0.0 mm 0.09 in2.3 mm
10:30 PM 29.6°F-1.3°C 28.3°F-2.1°C 95% Calm Calm -- 29.98 in1015.2 mb - 0.00 in0.0 mm 0.09 in2.3 mm
10:40 PM 29.6°F-1.3°C 28.1°F-2.2°C 94% Calm Calm -- 29.98 in1015.2 mb - 0.00 in0.0 mm 0.09 in2.3 mm
10:50 PM 29.7°F-1.3°C 28.4°F-2.0°C 95% Calm Calm -- 29.99 in1015.6 mb - 0.00 in0.0 mm 0.09 in2.3 mm
11:00 PM 29.7°F-1.3°C 28.4°F-2.0°C 95% Calm Calm -- 29.99 in1015.6 mb - 0.00 in0.0 mm 0.09 in2.3 mm
11:10 PM 29.7°F-1.3°C 28.4°F-2.0°C 95% Calm Calm -- 30.00 in1015.9 mb - 0.00 in0.0 mm 0.09 in2.3 mm
11:20 PM 29.6°F-1.3°C 28.3°F-2.1°C 95% Calm Calm -- 30.01 in1016.3 mb - 0.00 in0.0 mm 0.09 in2.3 mm
11:30 PM 29.6°F-1.3°C 28.3°F-2.1°C 95% Calm Calm -- 30.01 in1016.3 mb - 0.00 in0.0 mm 0.09 in2.3 mm
11:40 PM 29.6°F-1.3°C 28.3°F-2.1°C 95% Calm Calm -- 30.02 in1016.6 mb - 0.00 in0.0 mm 0.09 in2.3 mm
11:50 PM 29.6°F-1.3°C 28.3°F-2.1°C 95% Calm Calm -- 30.02 in1016.6 mb - 0.00 in0.0 mm 0.09 in2.3 mm